Terminal Aerodrome Forecast
Issued by NWS

Home | Current Version | Previous Version | Text Only | Print | Product List | Glossary On
Versions: 1 2 3 4 5 6 7 8 9 10 11 12 13 14 15 16 17 18 19
000
FTUS43 KGRR 271500 AAA
TAFBTL
TAF AMD
KBTL 271550Z 2716/2812 24005KT 2SM -SN OVC025
     FM271700 26005KT 1SM -SN SCT008 OVC012
     FM271830 33010KT 4SM -SN BKN020
     FM272200 33012KT P6SM OVC025=

USA.gov is the U.S. government's official web portal to all federal, state and local government web resources and services.